Terminal Aerodrome Forecast
Issued by NWS Albuquerque, NM

Home | Current Version | Previous Version | Text Only | Print | Product List | Glossary On
Versions: 1 2 3 4 5 6 7 8 9 10 11 12 13 14
570
FTUS45 KABQ 051129
TAFABQ
TAF
KABQ 051129Z 0512/0612 14006KT P6SM SCT250
     FM052000 26013G23KT P6SM SCT250
     FM060130 33007KT P6SM SCT250=

USA.gov is the U.S. government's official web portal to all federal, state and local government web resources and services.